Time;durP1;ratioP1;P1;durP2;ratioP2;P2;SDS_P1;SDS_P2;PMS_P1;PMS_P2;Temp;Humidity;BMP_temperature;BMP_pressure;BME280_temperature;BME280_humidity;BME280_pressure;Samples;Min_cycle;Max_cycle;Signal;HPM_P1;HPM_P2
2023/03/31 00:01:47;;;;;;;;;;;10.20;99.90;;;;;;5113005;28;19924;-61
2023/03/31 00:04:12;;;;;;;;;;;10.30;99.90;;;;;;5113871;28;19969;-61
2023/03/31 00:06:40;;;;;;;;;;;10.20;99.90;;;;;;5113431;28;19924;-61
2023/03/31 00:09:08;;;;;;;;;;;10.20;99.90;;;;;;5113178;28;20425;-61
2023/03/31 00:11:33;;;;;;;;;;;10.20;99.90;;;;;;5113182;28;19928;-65
2023/03/31 00:13:59;;;;;;;;;;;10.20;99.90;;;;;;5113365;28;19927;-61
2023/03/31 00:16:25;;;;;;;;;;;10.20;99.90;;;;;;5113670;28;19924;-61
2023/03/31 00:18:51;;;;;;;;;;;10.30;99.90;;;;;;5113250;28;19928;-62
2023/03/31 00:21:23;;;;;;;;;;;10.30;99.90;;;;;;5113604;28;19931;-61
2023/03/31 00:23:53;;;;;;;;;;;10.30;99.90;;;;;;5113154;28;19983;-61
2023/03/31 00:26:19;;;;;;;;;;;10.30;99.90;;;;;;5113324;28;20373;-62
2023/03/31 00:28:44;;;;;;;;;;;10.30;99.90;;;;;;5112862;28;19930;-61
2023/03/31 00:31:10;;;;;;;;;;;10.30;99.90;;;;;;5113218;28;19923;-60
2023/03/31 00:33:35;;;;;;;;;;;10.30;99.90;;;;;;5112992;28;19923;-65
2023/03/31 00:36:04;;;;;;;;;;;10.30;99.90;;;;;;5112884;28;20304;-62
2023/03/31 00:38:30;;;;;;;;;;;10.30;99.90;;;;;;5113211;28;20351;-62
2023/03/31 00:40:56;;;;;;;;;;;10.20;99.90;;;;;;5112594;28;20385;-61
2023/03/31 00:43:28;;;;;;;;;;;10.30;99.90;;;;;;5113047;28;19932;-61
2023/03/31 00:45:54;;;;;;;;;;;10.20;99.90;;;;;;5112593;28;19931;-61
2023/03/31 00:48:22;;;;;;;;;;;10.20;99.90;;;;;;5113061;28;19967;-62
2023/03/31 00:50:52;;;;;;;;;;;10.20;99.90;;;;;;5094886;28;19930;-62
2023/03/31 00:53:20;;;;;;;;;;;10.20;99.90;;;;;;5112885;28;19930;-61
2023/03/31 00:55:50;;;;;;;;;;;10.20;99.90;;;;;;5112224;28;20400;-61
2023/03/31 00:58:19;;;;;;;;;;;10.20;99.90;;;;;;5112827;28;20060;-61
2023/03/31 01:00:50;;;;;;;;;;;10.10;99.90;;;;;;5112509;28;19925;-62
2023/03/31 01:03:17;;;;;;;;;;;10.10;99.90;;;;;;5094875;28;19923;-62
2023/03/31 01:05:50;;;;;;;;;;;10.10;99.90;;;;;;5094368;28;19923;-61
2023/03/31 01:08:17;;;;;;;;;;;10.10;99.90;;;;;;5112691;28;19924;-61
2023/03/31 01:10:45;;;;;;;;;;;10.10;99.90;;;;;;5111834;28;19923;-61
2023/03/31 01:13:13;;;;;;;;;;;10.10;99.90;;;;;;5112570;28;20364;-62
2023/03/31 01:15:39;;;;;;;;;;;10.00;99.90;;;;;;5112562;28;19924;-62
2023/03/31 01:18:05;;;;;;;;;;;10.00;99.90;;;;;;5112422;28;19930;-61
2023/03/31 01:20:49;;;;;;;;;;;10.00;99.90;;;;;;5094468;28;19927;-62
2023/03/31 01:23:34;;;;;;;;;;;10.00;99.90;;;;;;5112740;28;19931;-62
2023/03/31 01:26:14;;;;;;;;;;;9.90;99.90;;;;;;5112093;28;19931;-61
2023/03/31 01:28:40;;;;;;;;;;;9.90;99.90;;;;;;5112599;28;19963;-61
2023/03/31 01:31:08;;;;;;;;;;;9.90;99.90;;;;;;5112233;28;19958;-61
2023/03/31 01:33:34;;;;;;;;;;;9.90;99.90;;;;;;5112328;28;19931;-61
2023/03/31 01:35:59;;;;;;;;;;;9.90;99.90;;;;;;5112052;28;19924;-60
2023/03/31 01:38:43;;;;;;;;;;;9.90;99.90;;;;;;5112433;28;19930;-60
2023/03/31 01:41:14;;;;;;;;;;;9.90;99.90;;;;;;5112251;28;20011;-61
2023/03/31 01:43:50;;;;;;;;;;;9.90;99.90;;;;;;5112493;28;19923;-62
2023/03/31 01:46:36;;;;;;;;;;;9.80;99.90;;;;;;5112572;28;19928;-62
2023/03/31 01:49:17;;;;;;;;;;;9.80;99.90;;;;;;5112172;28;19928;-61
2023/03/31 01:52:01;;;;;;;;;;;9.80;99.90;;;;;;5112452;28;20300;-61
2023/03/31 01:54:27;;;;;;;;;;;9.80;99.90;;;;;;5111493;28;20393;-61
2023/03/31 01:57:11;;;;;;;;;;;9.70;99.90;;;;;;5113813;28;20057;-61
2023/03/31 01:59:39;;;;;;;;;;;9.70;99.90;;;;;;5116082;28;19924;-61
2023/03/31 02:02:06;;;;;;;;;;;9.70;99.90;;;;;;5080684;28;19924;-61
2023/03/31 02:04:34;;;;;;;;;;;9.70;99.90;;;;;;5097905;28;19931;-61
2023/03/31 02:07:02;;;;;;;;;;;9.70;99.90;;;;;;5097321;28;20057;-60
2023/03/31 02:09:31;;;;;;;;;;;9.70;99.90;;;;;;5115898;28;19989;-60
2023/03/31 02:11:58;;;;;;;;;;;9.60;99.90;;;;;;5115072;28;19930;-61
2023/03/31 02:14:27;;;;;;;;;;;9.60;99.90;;;;;;5115398;28;19924;-60
2023/03/31 02:16:57;;;;;;;;;;;9.70;99.90;;;;;;5115686;28;19938;-63
2023/03/31 02:19:25;;;;;;;;;;;9.70;99.90;;;;;;5115745;28;19930;-61
2023/03/31 02:21:51;;;;;;;;;;;9.70;99.90;;;;;;5097059;28;19930;-64
2023/03/31 02:24:18;;;;;;;;;;;9.70;99.90;;;;;;5115416;28;20018;-61
2023/03/31 02:26:46;;;;;;;;;;;9.60;99.90;;;;;;5115497;28;19924;-62
2023/03/31 02:29:12;;;;;;;;;;;9.60;99.90;;;;;;5115050;28;19977;-61
2023/03/31 02:31:45;;;;;;;;;;;9.60;99.90;;;;;;5115602;28;19923;-61
2023/03/31 02:34:11;;;;;;;;;;;9.60;99.90;;;;;;5115056;28;19924;-61
2023/03/31 02:36:37;;;;;;;;;;;9.60;99.90;;;;;;5115410;28;20296;-61
2023/03/31 02:39:08;;;;;;;;;;;9.60;99.90;;;;;;5114722;28;19924;-62
2023/03/31 02:41:34;;;;;;;;;;;9.60;99.90;;;;;;5115176;28;19939;-61
2023/03/31 02:43:59;;;;;;;;;;;9.70;99.90;;;;;;5114990;28;20292;-60
2023/03/31 02:46:26;;;;;;;;;;;9.60;99.90;;;;;;5115373;28;19931;-61
2023/03/31 02:48:54;;;;;;;;;;;9.70;99.90;;;;;;5115332;28;19924;-61
2023/03/31 02:51:30;;;;;;;;;;;9.60;99.90;;;;;;5115215;28;19931;-61
2023/03/31 02:54:20;;;;;;;;;;;9.70;99.90;;;;;;5114887;28;20262;-64
2023/03/31 02:56:48;;;;;;;;;;;9.70;99.90;;;;;;5114691;28;20416;-61
2023/03/31 02:59:23;;;;;;;;;;;9.70;99.90;;;;;;5114589;28;19924;-60
2023/03/31 03:02:07;;;;;;;;;;;9.70;99.90;;;;;;5114821;28;19946;-61
2023/03/31 03:04:41;;;;;;;;;;;9.70;99.90;;;;;;5114871;28;20284;-63
2023/03/31 03:07:12;;;;;;;;;;;9.80;99.90;;;;;;5079037;28;19931;-61
2023/03/31 03:09:50;;;;;;;;;;;9.80;99.90;;;;;;5114528;28;20369;-61
2023/03/31 03:12:21;;;;;;;;;;;9.80;99.90;;;;;;5114437;28;19977;-62
2023/03/31 03:14:47;;;;;;;;;;;9.90;99.90;;;;;;5114891;28;19924;-62
2023/03/31 03:17:15;;;;;;;;;;;9.80;99.90;;;;;;5114189;28;19977;-61
2023/03/31 03:19:41;;;;;;;;;;;9.80;99.90;;;;;;5114518;28;20369;-62
2023/03/31 03:22:07;;;;;;;;;;;9.80;99.90;;;;;;5114243;28;20081;-61
2023/03/31 03:24:33;;;;;;;;;;;9.80;99.90;;;;;;5114580;28;19931;-61
2023/03/31 03:26:59;;;;;;;;;;;9.80;99.90;;;;;;5114524;28;19931;-61
2023/03/31 03:29:26;;;;;;;;;;;9.80;99.90;;;;;;5114187;28;19946;-62
2023/03/31 03:31:51;;;;;;;;;;;9.80;99.90;;;;;;5114420;28;19935;-61
2023/03/31 03:34:18;;;;;;;;;;;9.80;99.90;;;;;;5113773;28;19924;-60
2023/03/31 03:36:45;;;;;;;;;;;9.80;99.90;;;;;;5096343;28;19924;-60
2023/03/31 03:39:11;;;;;;;;;;;9.80;99.90;;;;;;5113762;28;19928;-60
2023/03/31 03:41:36;;;;;;;;;;;9.80;99.90;;;;;;5114087;28;19924;-62
2023/03/31 03:44:02;;;;;;;;;;;9.80;99.90;;;;;;5113994;28;19930;-64
2023/03/31 03:46:28;;;;;;;;;;;9.80;99.90;;;;;;5113970;28;20014;-61
2023/03/31 03:48:53;;;;;;;;;;;9.80;99.90;;;;;;5114060;28;20014;-61
2023/03/31 03:51:19;;;;;;;;;;;9.80;99.90;;;;;;5113743;28;19923;-61
2023/03/31 03:53:45;;;;;;;;;;;9.80;99.90;;;;;;5113962;28;19930;-61
2023/03/31 03:56:10;;;;;;;;;;;9.80;99.90;;;;;;5113527;28;19974;-62
2023/03/31 03:58:36;;;;;;;;;;;9.80;99.90;;;;;;5095719;28;19924;-62
2023/03/31 04:01:01;;;;;;;;;;;9.80;99.90;;;;;;5113519;28;19923;-61
2023/03/31 04:03:27;;;;;;;;;;;9.80;99.90;;;;;;5113407;28;19931;-61
2023/03/31 04:05:52;;;;;;;;;;;9.80;99.90;;;;;;5113974;28;20361;-62
2023/03/31 04:08:18;;;;;;;;;;;9.80;99.90;;;;;;5113355;28;20060;-61
2023/03/31 04:10:45;;;;;;;;;;;9.80;99.90;;;;;;5113724;28;19931;-61
2023/03/31 04:13:11;;;;;;;;;;;9.80;99.90;;;;;;5112908;28;19939;-61
2023/03/31 04:15:37;;;;;;;;;;;9.80;99.90;;;;;;5113440;28;19923;-61
2023/03/31 04:18:03;;;;;;;;;;;9.90;99.90;;;;;;5095561;28;19923;-61
2023/03/31 04:20:30;;;;;;;;;;;9.90;99.90;;;;;;5112675;28;19926;-62
2023/03/31 04:22:56;;;;;;;;;;;9.90;99.90;;;;;;5113530;28;20000;-61
2023/03/31 04:25:21;;;;;;;;;;;9.90;99.90;;;;;;5113024;28;19924;-62
2023/03/31 04:27:54;;;;;;;;;;;9.90;99.90;;;;;;5113237;28;19969;-61
2023/03/31 04:30:24;;;;;;;;;;;9.90;99.90;;;;;;5112609;28;20381;-61
2023/03/31 04:32:50;;;;;;;;;;;9.90;99.90;;;;;;5078345;28;19946;-61
2023/03/31 04:35:16;;;;;;;;;;;9.90;99.90;;;;;;5112879;28;19927;-60
2023/03/31 04:37:42;;;;;;;;;;;9.90;99.90;;;;;;5113141;28;19931;-62
2023/03/31 04:40:08;;;;;;;;;;;9.90;99.90;;;;;;5094959;28;19923;-63
2023/03/31 04:42:34;;;;;;;;;;;9.90;99.90;;;;;;5112496;28;19992;-61
2023/03/31 04:45:00;;;;;;;;;;;9.90;99.90;;;;;;5095104;28;20276;-61
2023/03/31 04:47:26;;;;;;;;;;;9.90;99.90;;;;;;5094372;28;19969;-62
2023/03/31 04:49:51;;;;;;;;;;;9.90;99.90;;;;;;5112715;28;19969;-63
2023/03/31 04:52:17;;;;;;;;;;;9.80;99.90;;;;;;5112514;28;19924;-62
2023/03/31 04:54:42;;;;;;;;;;;9.90;99.90;;;;;;5112902;28;20030;-62
2023/03/31 04:57:08;;;;;;;;;;;9.80;99.90;;;;;;5112906;28;19924;-62
2023/03/31 04:59:34;;;;;;;;;;;9.80;99.90;;;;;;5094425;28;20635;-61
2023/03/31 05:01:59;;;;;;;;;;;9.80;99.90;;;;;;5112687;28;19932;-61
2023/03/31 05:04:25;;;;;;;;;;;9.80;99.90;;;;;;5112489;28;20007;-63
2023/03/31 05:06:51;;;;;;;;;;;9.90;99.90;;;;;;5112746;28;20273;-62
2023/03/31 05:09:16;;;;;;;;;;;9.80;99.90;;;;;;5094180;28;19931;-66
2023/03/31 05:11:42;;;;;;;;;;;9.80;99.90;;;;;;5094619;28;19924;-62
2023/03/31 05:14:07;;;;;;;;;;;9.80;99.90;;;;;;5093845;28;19927;-62
2023/03/31 05:16:33;;;;;;;;;;;9.70;99.90;;;;;;5094155;28;20292;-62
2023/03/31 05:18:58;;;;;;;;;;;9.80;99.90;;;;;;5112550;28;20287;-62
2023/03/31 05:21:25;;;;;;;;;;;9.80;99.90;;;;;;5112266;28;19924;-62
2023/03/31 05:23:52;;;;;;;;;;;9.70;99.90;;;;;;5112348;28;19935;-62
2023/03/31 05:26:17;;;;;;;;;;;9.80;99.90;;;;;;5077538;28;19967;-66
2023/03/31 05:28:43;;;;;;;;;;;9.80;99.90;;;;;;5094016;28;20411;-62
2023/03/31 05:31:10;;;;;;;;;;;9.80;99.90;;;;;;5113230;28;19931;-62
2023/03/31 05:33:40;;;;;;;;;;;9.80;99.90;;;;;;5115928;28;19979;-62
2023/03/31 05:36:07;;;;;;;;;;;9.90;99.90;;;;;;5116416;28;19924;-62
2023/03/31 05:38:33;;;;;;;;;;;9.80;99.90;;;;;;5115634;28;19937;-62
2023/03/31 05:40:59;;;;;;;;;;;9.90;99.90;;;;;;5097795;28;20466;-62
2023/03/31 05:43:24;;;;;;;;;;;9.90;99.90;;;;;;5097403;28;20010;-63
2023/03/31 05:45:50;;;;;;;;;;;9.90;99.90;;;;;;5081159;28;19924;-62
2023/03/31 05:48:16;;;;;;;;;;;10.00;99.90;;;;;;5115950;28;20440;-63
2023/03/31 05:50:42;;;;;;;;;;;9.90;99.90;;;;;;5115669;28;19927;-63
2023/03/31 05:53:08;;;;;;;;;;;9.90;99.90;;;;;;5115452;28;19967;-63
2023/03/31 05:55:38;;;;;;;;;;;9.90;99.90;;;;;;5096865;28;20019;-61
2023/03/31 05:58:03;;;;;;;;;;;10.00;99.90;;;;;;5115802;28;19924;-62
2023/03/31 06:00:30;;;;;;;;;;;10.00;99.90;;;;;;5115284;28;19930;-62
2023/03/31 06:02:56;;;;;;;;;;;9.90;99.90;;;;;;5115828;28;19969;-62
2023/03/31 06:05:25;;;;;;;;;;;10.00;99.90;;;;;;5116007;28;19924;-61
2023/03/31 06:07:52;;;;;;;;;;;10.00;99.90;;;;;;5115381;28;20561;-61
2023/03/31 06:10:18;;;;;;;;;;;10.00;99.90;;;;;;5115802;28;20345;-62
2023/03/31 06:12:43;;;;;;;;;;;10.00;99.90;;;;;;5114467;28;19931;-62
2023/03/31 06:15:09;;;;;;;;;;;10.00;99.90;;;;;;5096408;28;19924;-61
2023/03/31 06:17:35;;;;;;;;;;;9.90;99.90;;;;;;5095726;28;20018;-61
2023/03/31 06:20:00;;;;;;;;;;;9.90;99.90;;;;;;5114209;28;20000;-62
2023/03/31 06:22:26;;;;;;;;;;;9.90;99.90;;;;;;5114066;28;20330;-65
2023/03/31 06:24:52;;;;;;;;;;;9.90;99.90;;;;;;5095788;28;19923;-62
2023/03/31 06:27:17;;;;;;;;;;;9.90;99.90;;;;;;5114018;28;19923;-63
2023/03/31 06:29:43;;;;;;;;;;;9.90;99.90;;;;;;5113922;28;20245;-62
2023/03/31 06:32:08;;;;;;;;;;;9.90;99.90;;;;;;5095835;28;19930;-62
2023/03/31 06:34:34;;;;;;;;;;;9.90;99.90;;;;;;5095397;28;19924;-61
2023/03/31 06:37:00;;;;;;;;;;;9.90;99.90;;;;;;5096164;28;20253;-62
2023/03/31 06:39:25;;;;;;;;;;;9.90;99.90;;;;;;5113896;28;19927;-63
2023/03/31 06:41:51;;;;;;;;;;;9.90;99.90;;;;;;5113081;28;19924;-63
2023/03/31 06:44:18;;;;;;;;;;;9.90;99.90;;;;;;5113881;28;19932;-62
2023/03/31 06:46:43;;;;;;;;;;;9.80;99.90;;;;;;5113429;28;19923;-63
2023/03/31 06:49:09;;;;;;;;;;;9.90;99.90;;;;;;5113512;28;20022;-63
2023/03/31 06:51:34;;;;;;;;;;;9.80;99.90;;;;;;5113392;28;19953;-63
2023/03/31 06:54:00;;;;;;;;;;;10.00;99.90;;;;;;5113577;28;19928;-64
2023/03/31 06:56:26;;;;;;;;;;;9.90;99.90;;;;;;5113947;28;19930;-63
2023/03/31 06:58:52;;;;;;;;;;;9.90;99.90;;;;;;5112987;28;19924;-62
2023/03/31 07:01:18;;;;;;;;;;;9.90;99.90;;;;;;5113569;28;19972;-64
2023/03/31 07:03:43;;;;;;;;;;;9.90;99.90;;;;;;5112768;28;19946;-62
2023/03/31 07:06:09;;;;;;;;;;;9.80;99.90;;;;;;5113318;28;19930;-64
2023/03/31 07:08:35;;;;;;;;;;;9.90;99.90;;;;;;5113202;28;19954;-65
2023/03/31 07:11:01;;;;;;;;;;;9.80;99.90;;;;;;5113268;28;19928;-64
2023/03/31 07:13:27;;;;;;;;;;;9.90;99.90;;;;;;5048131;28;1834572;-64
2023/03/31 07:15:52;;;;;;;;;;;9.90;99.90;;;;;;5113968;28;19924;-64
2023/03/31 07:18:18;;;;;;;;;;;9.90;99.90;;;;;;5114062;28;20290;-64
2023/03/31 07:20:46;;;;;;;;;;;9.90;99.90;;;;;;5113947;28;19924;-63
2023/03/31 07:23:12;;;;;;;;;;;9.90;99.90;;;;;;5114253;28;19924;-64
2023/03/31 07:25:38;;;;;;;;;;;9.90;99.90;;;;;;5114077;28;19931;-67
2023/03/31 07:28:05;;;;;;;;;;;9.90;99.90;;;;;;5114199;28;19946;-63
2023/03/31 07:30:31;;;;;;;;;;;9.90;99.90;;;;;;5113860;28;19928;-64
2023/03/31 07:32:57;;;;;;;;;;;9.90;99.90;;;;;;5113978;28;19930;-63
2023/03/31 07:35:22;;;;;;;;;;;9.90;99.90;;;;;;5114250;28;19923;-64
2023/03/31 07:37:49;;;;;;;;;;;9.90;99.90;;;;;;5113783;28;19924;-64
2023/03/31 07:40:17;;;;;;;;;;;9.80;99.90;;;;;;5114020;28;19924;-63
2023/03/31 07:42:43;;;;;;;;;;;9.90;99.90;;;;;;5113458;28;19923;-64
2023/03/31 07:45:09;;;;;;;;;;;9.90;99.90;;;;;;5096113;28;19924;-65
2023/03/31 07:47:35;;;;;;;;;;;9.90;99.90;;;;;;5113761;28;19948;-64
2023/03/31 07:50:01;;;;;;;;;;;9.90;99.90;;;;;;5113583;28;19928;-64
2023/03/31 07:52:26;;;;;;;;;;;9.90;99.90;;;;;;5113408;28;20022;-63
2023/03/31 07:54:52;;;;;;;;;;;9.90;99.90;;;;;;5093939;28;19935;-63
2023/03/31 07:57:18;;;;;;;;;;;9.90;99.90;;;;;;5113520;28;19924;-63
2023/03/31 07:59:44;;;;;;;;;;;10.00;99.90;;;;;;5112848;28;20238;-67
2023/03/31 08:02:15;;;;;;;;;;;10.00;99.90;;;;;;5095073;28;20014;-63
2023/03/31 08:04:41;;;;;;;;;;;10.10;99.90;;;;;;5095067;28;20274;-63
2023/03/31 08:07:07;;;;;;;;;;;10.10;99.90;;;;;;5112589;28;19995;-63
2023/03/31 08:09:33;;;;;;;;;;;10.00;99.90;;;;;;5113005;28;19924;-63
2023/03/31 08:11:59;;;;;;;;;;;10.10;99.90;;;;;;5094671;28;19930;-64
2023/03/31 08:14:24;;;;;;;;;;;10.10;99.90;;;;;;5112909;28;19979;-63
2023/03/31 08:16:52;;;;;;;;;;;10.00;99.90;;;;;;5112648;28;20312;-64
2023/03/31 08:19:17;;;;;;;;;;;10.10;99.90;;;;;;5112709;28;20331;-64
2023/03/31 08:21:43;;;;;;;;;;;10.00;99.90;;;;;;5112861;28;19924;-63
2023/03/31 08:24:08;;;;;;;;;;;10.00;99.90;;;;;;5112918;28;20373;-63
2023/03/31 08:26:34;;;;;;;;;;;10.00;99.90;;;;;;5094710;28;19923;-64
2023/03/31 08:29:00;;;;;;;;;;;10.00;99.90;;;;;;5077502;28;20126;-64
2023/03/31 08:31:27;;;;;;;;;;;9.90;99.90;;;;;;5094775;28;20369;-64
2023/03/31 08:33:53;;;;;;;;;;;10.00;99.90;;;;;;5112098;28;20400;-64
2023/03/31 08:36:19;;;;;;;;;;;10.00;99.90;;;;;;5078056;28;19924;-64
2023/03/31 08:38:46;;;;;;;;;;;10.00;99.90;;;;;;5112736;28;19931;-64
2023/03/31 08:41:21;;;;;;;;;;;10.00;99.90;;;;;;5112168;28;20376;-64
2023/03/31 08:43:48;;;;;;;;;;;10.00;99.90;;;;;;5112841;28;20338;-63
2023/03/31 08:46:16;;;;;;;;;;;10.10;99.90;;;;;;5112194;28;19942;-65
2023/03/31 08:48:47;;;;;;;;;;;10.00;99.90;;;;;;5112877;28;19924;-65
2023/03/31 08:51:26;;;;;;;;;;;10.00;99.90;;;;;;5112635;28;20012;-63
2023/03/31 08:53:55;;;;;;;;;;;10.00;99.90;;;;;;5112026;28;19976;-67
2023/03/31 08:56:21;;;;;;;;;;;10.00;99.90;;;;;;5112378;28;20337;-63
2023/03/31 08:58:50;;;;;;;;;;;10.10;99.90;;;;;;5094344;28;19931;-65
2023/03/31 09:01:25;;;;;;;;;;;10.10;99.90;;;;;;5112169;28;19930;-64
2023/03/31 09:04:00;;;;;;;;;;;10.10;99.90;;;;;;5094327;28;20469;-64
2023/03/31 09:06:46;;;;;;;;;;;10.20;99.90;;;;;;5112261;28;20014;-64
2023/03/31 09:09:25;;;;;;;;;;;10.10;99.90;;;;;;5094224;28;19935;-64
2023/03/31 09:11:52;;;;;;;;;;;10.20;99.90;;;;;;5112500;28;20037;-66
2023/03/31 09:14:36;;;;;;;;;;;10.20;99.90;;;;;;5111725;28;19928;-65
2023/03/31 09:17:22;;;;;;;;;;;10.20;99.90;;;;;;5111812;28;20317;-64
2023/03/31 09:19:51;;;;;;;;;;;10.30;99.90;;;;;;5112518;28;19931;-66
2023/03/31 09:22:25;;;;;;;;;;;10.30;99.90;;;;;;5093718;28;19924;-64
2023/03/31 09:24:53;;;;;;;;;;;10.30;99.90;;;;;;5112021;28;19943;-66
2023/03/31 09:27:19;;;;;;;;;;;10.40;99.90;;;;;;5076729;28;19928;-64
2023/03/31 09:29:48;;;;;;;;;;;10.40;99.90;;;;;;5094464;28;19924;-64
2023/03/31 09:32:14;;;;;;;;;;;10.40;99.90;;;;;;5111984;28;19931;-64
2023/03/31 09:34:39;;;;;;;;;;;10.40;99.90;;;;;;5112155;28;19928;-64
2023/03/31 09:37:05;;;;;;;;;;;10.40;99.90;;;;;;5112173;28;19924;-64
2023/03/31 09:39:31;;;;;;;;;;;10.50;99.90;;;;;;5112155;28;19974;-64
2023/03/31 09:41:59;;;;;;;;;;;10.40;99.90;;;;;;5094064;28;19927;-65
2023/03/31 09:44:27;;;;;;;;;;;10.50;99.90;;;;;;5111949;28;19924;-66
2023/03/31 09:46:53;;;;;;;;;;;10.50;99.90;;;;;;5112020;28;19924;-65
2023/03/31 09:49:20;;;;;;;;;;;10.50;99.90;;;;;;5111263;28;20052;-65
2023/03/31 09:51:51;;;;;;;;;;;10.50;99.90;;;;;;5111865;28;19972;-65
2023/03/31 09:54:23;;;;;;;;;;;10.60;99.90;;;;;;5111407;28;19931;-64
2023/03/31 09:56:51;;;;;;;;;;;10.60;99.90;;;;;;5111642;28;20277;-65
2023/03/31 09:59:22;;;;;;;;;;;10.60;99.90;;;;;;5111220;28;19923;-67
2023/03/31 10:01:52;;;;;;;;;;;10.70;99.90;;;;;;5111197;28;19942;-66
2023/03/31 10:04:27;;;;;;;;;;;10.80;99.90;;;;;;5111240;28;19967;-64
2023/03/31 10:06:54;;;;;;;;;;;10.80;99.90;;;;;;5093488;28;19924;-64
2023/03/31 10:09:22;;;;;;;;;;;10.90;99.90;;;;;;5111477;28;20270;-64
2023/03/31 10:11:54;;;;;;;;;;;10.90;99.90;;;;;;5111641;28;19930;-64
2023/03/31 10:14:25;;;;;;;;;;;11.00;99.90;;;;;;5111009;28;19923;-65
2023/03/31 10:16:55;;;;;;;;;;;11.10;99.90;;;;;;5111930;28;19932;-64
2023/03/31 10:19:23;;;;;;;;;;;11.20;99.90;;;;;;5096621;28;19923;-64
2023/03/31 10:21:57;;;;;;;;;;;11.20;99.90;;;;;;5114853;28;20011;-64
2023/03/31 10:24:22;;;;;;;;;;;11.20;99.90;;;;;;5114979;28;20349;-67
2023/03/31 10:26:49;;;;;;;;;;;11.40;99.90;;;;;;5080357;28;20022;-65
2023/03/31 10:29:20;;;;;;;;;;;11.40;99.90;;;;;;5114811;28;19947;-66
2023/03/31 10:31:46;;;;;;;;;;;11.50;99.90;;;;;;5115305;28;20023;-65
2023/03/31 10:34:15;;;;;;;;;;;11.50;99.90;;;;;;5114644;28;19974;-65
2023/03/31 10:36:50;;;;;;;;;;;11.50;99.90;;;;;;5114691;28;20385;-65
2023/03/31 10:39:16;;;;;;;;;;;11.50;99.90;;;;;;5096470;28;19930;-65
2023/03/31 10:41:42;;;;;;;;;;;11.50;99.90;;;;;;5114685;28;20372;-64
2023/03/31 10:44:27;;;;;;;;;;;11.50;99.90;;;;;;5114725;28;19924;-67
2023/03/31 10:46:53;;;;;;;;;;;11.40;99.90;;;;;;5114835;28;19947;-64
2023/03/31 10:49:24;;;;;;;;;;;11.40;99.90;;;;;;5114500;28;20317;-65
2023/03/31 10:51:54;;;;;;;;;;;11.30;99.90;;;;;;5096837;28;19938;-65
2023/03/31 10:54:20;;;;;;;;;;;11.30;99.90;;;;;;5096002;28;19931;-64
2023/03/31 10:56:47;;;;;;;;;;;11.30;99.90;;;;;;5114645;28;19939;-64
2023/03/31 10:59:28;;;;;;;;;;;11.30;99.90;;;;;;5096449;28;20257;-65
2023/03/31 11:02:03;;;;;;;;;;;11.40;99.90;;;;;;5114821;28;19931;-63
2023/03/31 11:04:38;;;;;;;;;;;11.60;99.90;;;;;;5114268;28;19996;-64
2023/03/31 11:07:06;;;;;;;;;;;11.60;99.90;;;;;;5114639;28;20295;-64
2023/03/31 11:09:32;;;;;;;;;;;11.60;99.90;;;;;;5114058;28;19926;-63
2023/03/31 11:12:07;;;;;;;;;;;11.60;99.90;;;;;;5114423;28;19923;-62
2023/03/31 11:14:41;;;;;;;;;;;11.70;99.90;;;;;;5114048;28;20497;-66
2023/03/31 11:17:17;;;;;;;;;;;11.80;99.90;;;;;;5114378;28;19924;-65
2023/03/31 11:20:09;;;;;;;;;;;11.80;99.90;;;;;;5114306;28;19931;-64
2023/03/31 11:22:38;;;;;;;;;;;11.90;99.90;;;;;;5113876;28;19919;-65
2023/03/31 11:25:07;;;;;;;;;;;12.00;99.90;;;;;;5114104;28;20356;-64
2023/03/31 11:27:36;;;;;;;;;;;12.10;99.90;;;;;;5113851;28;19947;-65
2023/03/31 11:30:23;;;;;;;;;;;12.10;99.90;;;;;;5112877;28;20273;-66
2023/03/31 11:33:00;;;;;;;;;;;12.20;99.90;;;;;;5113267;28;19924;-68
2023/03/31 11:35:42;;;;;;;;;;;12.40;99.90;;;;;;5113531;28;19946;-68
2023/03/31 11:38:11;;;;;;;;;;;12.40;99.90;;;;;;5113878;28;19924;-68
2023/03/31 11:40:37;;;;;;;;;;;12.60;99.90;;;;;;5113622;28;20011;-67
2023/03/31 11:43:09;;;;;;;;;;;12.60;99.90;;;;;;5113910;28;20373;-66
2023/03/31 11:45:35;;;;;;;;;;;12.80;99.90;;;;;;5113586;28;19924;-68
2023/03/31 11:48:03;;;;;;;;;;;12.90;99.90;;;;;;5113390;28;20035;-68
2023/03/31 11:50:31;;;;;;;;;;;13.10;99.90;;;;;;5113093;28;19924;-68
2023/03/31 11:53:26;;;;;;;;;;;13.20;99.90;;;;;;5113198;28;19932;-68
2023/03/31 11:55:53;;;;;;;;;;;13.40;99.90;;;;;;5073842;28;20280;-68
2023/03/31 11:58:26;;;;;;;;;;;13.40;99.90;;;;;;5094952;28;19924;-69
2023/03/31 12:00:56;;;;;;;;;;;13.40;99.90;;;;;;5113459;28;20376;-66
2023/03/31 12:03:34;;;;;;;;;;;13.50;99.90;;;;;;5112613;28;19930;-70
2023/03/31 12:06:06;;;;;;;;;;;13.60;99.90;;;;;;5113652;28;19924;-65
2023/03/31 12:08:37;;;;;;;;;;;13.60;99.90;;;;;;5113189;28;20357;-65
2023/03/31 12:11:09;;;;;;;;;;;13.50;99.90;;;;;;5113645;28;19942;-66
2023/03/31 12:13:40;;;;;;;;;;;13.40;99.90;;;;;;5113099;28;19924;-65
2023/03/31 12:16:11;;;;;;;;;;;13.20;99.90;;;;;;5113661;28;19937;-65
2023/03/31 12:18:45;;;;;;;;;;;13.10;99.90;;;;;;5113218;28;19924;-66
2023/03/31 12:21:11;;;;;;;;;;;13.00;99.90;;;;;;5113517;28;19927;-64
2023/03/31 12:23:43;;;;;;;;;;;12.80;99.90;;;;;;5113066;28;19924;-65
2023/03/31 12:26:14;;;;;;;;;;;12.70;99.90;;;;;;5112872;28;20393;-64
2023/03/31 12:28:41;;;;;;;;;;;12.70;99.90;;;;;;5112786;28;19963;-65
2023/03/31 12:31:10;;;;;;;;;;;12.60;99.90;;;;;;5113032;28;19924;-65
2023/03/31 12:33:38;;;;;;;;;;;12.60;99.90;;;;;;5112405;28;19924;-65
2023/03/31 12:36:10;;;;;;;;;;;12.50;99.90;;;;;;5113141;28;19924;-65
2023/03/31 12:38:35;;;;;;;;;;;12.40;99.90;;;;;;5112844;28;20010;-64
2023/03/31 12:41:10;;;;;;;;;;;12.30;99.90;;;;;;5112615;28;20044;-64
2023/03/31 12:43:39;;;;;;;;;;;12.20;99.90;;;;;;5112745;28;19931;-63
2023/03/31 12:46:16;;;;;;;;;;;12.20;99.90;;;;;;5112857;28;19924;-64
2023/03/31 12:48:48;;;;;;;;;;;12.20;99.90;;;;;;5112676;28;19931;-64
2023/03/31 12:51:19;;;;;;;;;;;12.20;99.90;;;;;;5112583;28;19924;-65
2023/03/31 12:53:48;;;;;;;;;;;12.30;99.90;;;;;;5112328;28;19931;-65
2023/03/31 12:56:13;;;;;;;;;;;12.30;99.90;;;;;;5094230;28;19930;-64
2023/03/31 12:58:40;;;;;;;;;;;12.40;99.90;;;;;;5112049;28;19923;-64
2023/03/31 13:01:10;;;;;;;;;;;12.60;99.90;;;;;;5094305;28;19924;-64
2023/03/31 13:03:36;;;;;;;;;;;12.70;99.90;;;;;;5093977;28;20381;-64
2023/03/31 13:06:02;;;;;;;;;;;12.90;99.90;;;;;;5094299;28;19981;-64
2023/03/31 13:08:47;;;;;;;;;;;13.00;99.90;;;;;;5094550;28;19920;-64
2023/03/31 13:11:12;;;;;;;;;;;13.00;99.90;;;;;;5112645;28;19919;-66
2023/03/31 13:14:10;;;;;;;;;;;13.00;99.90;;;;;;5093766;28;19924;-65
2023/03/31 13:16:36;;;;;;;;;;;13.10;99.90;;;;;;5055590;28;19930;-69
2023/03/31 13:19:02;;;;;;;;;;;13.10;99.90;;;;;;5112455;28;19924;-66
2023/03/31 13:21:28;;;;;;;;;;;13.10;99.90;;;;;;5077749;28;20252;-66
2023/03/31 13:23:57;;;;;;;;;;;13.20;99.90;;;;;;5112308;28;19931;-66
2023/03/31 13:26:32;;;;;;;;;;;13.20;99.90;;;;;;5112369;28;19924;-65
2023/03/31 13:29:13;;;;;;;;;;;13.30;99.90;;;;;;5112291;28;19931;-65
2023/03/31 13:31:57;;;;;;;;;;;13.40;99.90;;;;;;5112055;28;19923;-65
2023/03/31 13:34:23;;;;;;;;;;;13.50;99.90;;;;;;5093980;28;19924;-65
2023/03/31 13:36:57;;;;;;;;;;;13.50;99.90;;;;;;5093723;28;20065;-65
2023/03/31 13:39:40;;;;;;;;;;;13.50;99.90;;;;;;5112290;28;20292;-65
2023/03/31 13:42:15;;;;;;;;;;;13.50;99.90;;;;;;5112083;28;20286;-65
2023/03/31 13:44:41;;;;;;;;;;;13.50;99.90;;;;;;5076891;28;19927;-65
2023/03/31 13:47:25;;;;;;;;;;;13.40;99.90;;;;;;5111403;28;20258;-69
2023/03/31 13:50:02;;;;;;;;;;;13.30;99.90;;;;;;5093389;28;20373;-68
2023/03/31 13:52:38;;;;;;;;;;;13.30;99.90;;;;;;5113390;28;19924;-66
2023/03/31 13:55:22;;;;;;;;;;;13.30;99.90;;;;;;5115608;28;19923;-67
2023/03/31 13:58:06;;;;;;;;;;;13.20;99.90;;;;;;5115337;28;19924;-66
2023/03/31 14:00:55;;;;;;;;;;;13.10;99.90;;;;;;5116145;28;19923;-66
2023/03/31 14:03:26;;;;;;;;;;;12.90;99.90;;;;;;5115955;28;19932;-64
2023/03/31 14:05:55;;;;;;;;;;;12.80;99.90;;;;;;5115550;28;19969;-67
2023/03/31 14:08:30;;;;;;;;;;;12.60;99.90;;;;;;5115251;28;19936;-65
2023/03/31 14:11:14;;;;;;;;;;;12.60;99.90;;;;;;5115356;28;19924;-66
2023/03/31 14:13:39;;;;;;;;;;;12.50;99.90;;;;;;5115239;28;19924;-72
2023/03/31 14:16:05;;;;;;;;;;;12.30;99.90;;;;;;5080162;28;19973;-65
2023/03/31 14:18:37;;;;;;;;;;;12.20;99.90;;;;;;5115309;28;19934;-65
2023/03/31 14:21:02;;;;;;;;;;;12.20;99.90;;;;;;5115092;28;20006;-67
2023/03/31 14:23:35;;;;;;;;;;;12.30;99.90;;;;;;5097676;28;19974;-67
2023/03/31 14:26:05;;;;;;;;;;;12.40;99.90;;;;;;5115182;28;19989;-67
2023/03/31 14:28:40;;;;;;;;;;;12.40;99.90;;;;;;5115085;28;19924;-67
2023/03/31 14:31:20;;;;;;;;;;;12.50;99.90;;;;;;5114931;28;19931;-67
2023/03/31 14:34:06;;;;;;;;;;;12.50;99.90;;;;;;5079620;28;19959;-68
2023/03/31 14:36:32;;;;;;;;;;;12.50;99.90;;;;;;5115418;28;20445;-67